Time;durP1;ratioP1;P1;durP2;ratioP2;P2;SDS_P1;SDS_P2;PMS_P1;PMS_P2;Temp;Humidity;BMP_temperature;BMP_pressure;BME280_temperature;BME280_humidity;BME280_pressure;Samples;Min_cycle;Max_cycle;Signal;HPM_P1;HPM_P2
2022/04/10 00:00:05;;;;;;;5.50;2.40;;;6.20;99.90;;;;;;5053470;28;20025;-66
2022/04/10 00:02:30;;;;;;;4.20;2.72;;;6.20;99.90;;;;;;5053788;28;20037;-66
2022/04/10 00:04:56;;;;;;;4.73;2.40;;;6.20;99.90;;;;;;5053483;28;20017;-66
2022/04/10 00:07:21;;;;;;;5.23;2.40;;;6.20;99.90;;;;;;5053798;28;20049;-66
2022/04/10 00:09:47;;;;;;;3.73;2.30;;;6.10;99.90;;;;;;5053519;28;20498;-66
2022/04/10 00:12:13;;;;;;;6.70;2.53;;;6.10;99.90;;;;;;5054511;28;20494;-65
2022/04/10 00:14:38;;;;;;;2.90;1.87;;;6.10;99.90;;;;;;5054049;28;20078;-65
2022/04/10 00:17:04;;;;;;;6.60;2.70;;;6.00;99.90;;;;;;5053437;28;20142;-66
2022/04/10 00:19:31;;;;;;;5.63;2.53;;;6.00;99.90;;;;;;5035924;28;20021;-66
2022/04/10 00:21:56;;;;;;;;;;;6.00;99.90;;;;;;5035791;28;20029;-66
2022/04/10 00:24:25;;;;;;;5.32;2.47;;;6.00;99.90;;;;;;5052122;28;19904;-65
2022/04/10 00:26:51;;;;;;;6.88;2.80;;;5.90;99.90;;;;;;5052858;28;20021;-66
2022/04/10 00:29:17;;;;;;;5.50;3.25;;;5.90;99.90;;;;;;5052999;28;20028;-66
2022/04/10 00:31:42;;;;;;;3.20;2.60;;;5.90;99.90;;;;;;5053119;28;20359;-65
2022/04/10 00:34:08;;;;;;;5.00;3.17;;;5.80;99.90;;;;;;5053020;28;20025;-65
2022/04/10 00:36:33;;;;;;;6.20;3.83;;;5.80;99.90;;;;;;5052786;28;20100;-66
2022/04/10 00:39:00;;;;;;;5.43;2.83;;;5.70;99.90;;;;;;5053044;28;20056;-66
2022/04/10 00:41:26;;;;;;;6.22;3.13;;;5.70;99.90;;;;;;5053332;28;20017;-66
2022/04/10 00:44:05;;;;;;;4.03;2.85;;;5.60;99.90;;;;;;5053481;28;20033;-62
2022/04/10 00:46:32;;;;;;;4.47;2.38;;;5.70;99.90;;;;;;5035037;28;20021;-62
2022/04/10 00:48:57;;;;;;;5.22;3.00;;;5.60;99.90;;;;;;5053120;28;20052;-63
2022/04/10 00:51:43;;;;;;;4.93;2.80;;;5.60;99.90;;;;;;5052986;28;20048;-62
2022/04/10 00:54:17;;;;;;;4.85;3.20;;;5.50;99.90;;;;;;5052733;28;20210;-61
2022/04/10 00:56:44;;;;;;;5.85;2.83;;;5.50;99.90;;;;;;5053665;28;20096;-62
2022/04/10 00:59:10;;;;;;;7.18;3.30;;;5.50;99.90;;;;;;5053003;28;20037;-62
2022/04/10 01:01:37;;;;;;;4.18;2.70;;;5.50;99.90;;;;;;5053043;28;20044;-62
2022/04/10 01:04:03;;;;;;;;;;;5.40;99.90;;;;;;5053155;28;20112;-62
2022/04/10 01:06:30;;;;;;;6.57;3.20;;;5.40;99.90;;;;;;5052809;28;19974;-62
2022/04/10 01:08:57;;;;;;;5.32;2.90;;;5.30;99.90;;;;;;5052958;28;20033;-62
2022/04/10 01:11:22;;;;;;;5.38;3.10;;;5.30;99.90;;;;;;5052687;28;20405;-61
2022/04/10 01:13:48;;;;;;;4.75;2.95;;;5.20;99.90;;;;;;5052789;28;20049;-62
2022/04/10 01:16:15;;;;;;;4.47;2.85;;;5.20;99.90;;;;;;5052588;28;20033;-61
2022/04/10 01:18:41;;;;;;;5.68;3.15;;;5.20;99.90;;;;;;5034793;28;20025;-62
2022/04/10 01:21:07;;;;;;;;;;;5.20;99.90;;;;;;5035302;28;20070;-62
2022/04/10 01:23:32;;;;;;;6.32;3.30;;;5.20;99.90;;;;;;5052714;28;20007;-62
2022/04/10 01:25:58;;;;;;;5.57;2.80;;;5.20;99.90;;;;;;5052662;28;20364;-63
2022/04/10 01:28:23;;;;;;;11.93;4.60;;;5.10;99.90;;;;;;5052736;28;20025;-62
2022/04/10 01:30:49;;;;;;;5.57;2.87;;;5.10;99.90;;;;;;5052622;28;20025;-61
2022/04/10 01:33:15;;;;;;;5.87;2.93;;;5.00;99.90;;;;;;5052447;28;20545;-62
2022/04/10 01:35:40;;;;;;;8.30;3.23;;;5.00;99.90;;;;;;5036561;28;20025;-62
2022/04/10 01:38:09;;;;;;;8.03;3.03;;;5.00;99.90;;;;;;5057545;28;20025;-62
2022/04/10 01:40:35;;;;;;;5.78;3.00;;;4.90;99.90;;;;;;5056292;28;20426;-62
2022/04/10 01:43:01;;;;;;;6.77;3.50;;;4.90;99.90;;;;;;5055978;28;20037;-61
2022/04/10 01:45:26;;;;;;;7.13;3.65;;;4.90;99.90;;;;;;5056742;28;20100;-62
2022/04/10 01:47:52;;;;;;;6.37;3.90;;;4.90;99.90;;;;;;5056391;28;20033;-63
2022/04/10 01:50:19;;;;;;;8.07;3.75;;;4.80;99.90;;;;;;5056244;28;20029;-61
2022/04/10 01:52:45;;;;;;;5.75;3.15;;;4.90;99.90;;;;;;5056498;28;20036;-61
2022/04/10 01:55:11;;;;;;;7.07;3.28;;;4.90;99.90;;;;;;5056050;28;20029;-62
2022/04/10 01:57:37;;;;;;;4.90;2.67;;;4.80;99.90;;;;;;5037909;28;20031;-61
2022/04/10 02:00:04;;;;;;;6.03;3.47;;;4.70;99.90;;;;;;5056004;28;20521;-62
2022/04/10 02:02:30;;;;;;;5.72;3.15;;;4.70;99.90;;;;;;5055797;28;20025;-61
2022/04/10 02:04:55;;;;;;;7.63;3.00;;;4.70;99.90;;;;;;5055812;28;20052;-62
2022/04/10 02:07:21;;;;;;;6.50;3.60;;;4.70;99.90;;;;;;5055861;28;20032;-63
2022/04/10 02:09:46;;;;;;;5.37;3.43;;;4.70;99.90;;;;;;5055908;28;20063;-62
2022/04/10 02:12:12;;;;;;;7.38;3.30;;;4.70;99.90;;;;;;5055696;28;20025;-64
2022/04/10 02:14:38;;;;;;;6.70;3.20;;;4.70;99.90;;;;;;5055956;28;20497;-63
2022/04/10 02:17:04;;;;;;;6.53;3.27;;;4.70;99.90;;;;;;5055935;28;20029;-62
2022/04/10 02:19:29;;;;;;;4.97;3.00;;;4.80;99.90;;;;;;5055738;28;20028;-62
2022/04/10 02:21:57;;;;;;;6.57;3.23;;;4.80;99.90;;;;;;5055510;28;20033;-62
2022/04/10 02:24:23;;;;;;;6.63;3.08;;;4.90;99.90;;;;;;5055448;28;20029;-62
2022/04/10 02:26:48;;;;;;;6.28;2.88;;;4.80;99.90;;;;;;5055407;28;20195;-62
2022/04/10 02:29:14;;;;;;;5.53;2.77;;;4.80;99.90;;;;;;5055448;28;20061;-62
2022/04/10 02:31:40;;;;;;;4.65;2.83;;;4.80;99.90;;;;;;5055760;28;20476;-63
2022/04/10 02:34:05;;;;;;;4.40;2.57;;;4.70;99.90;;;;;;5037578;28;20029;-61
2022/04/10 02:36:31;;;;;;;5.77;2.83;;;4.70;99.90;;;;;;5055518;28;20024;-62
2022/04/10 02:38:57;;;;;;;5.10;2.87;;;4.70;99.90;;;;;;5055348;28;20118;-61
2022/04/10 02:41:22;;;;;;;4.63;3.07;;;4.70;99.90;;;;;;5055974;28;20040;-62
2022/04/10 02:43:48;;;;;;;5.67;2.73;;;4.70;99.90;;;;;;5055304;28;20060;-62
2022/04/10 02:46:13;;;;;;;4.67;2.70;;;4.70;99.90;;;;;;5054416;28;20055;-62
2022/04/10 02:48:39;;;;;;;4.70;3.30;;;4.70;99.90;;;;;;5055542;28;20025;-62
2022/04/10 02:51:05;;;;;;;4.90;2.90;;;4.60;99.90;;;;;;5055310;28;20025;-62
2022/04/10 02:53:31;;;;;;;7.23;3.13;;;4.70;99.90;;;;;;5055298;28;20032;-62
2022/04/10 02:55:56;;;;;;;6.70;3.33;;;4.70;99.90;;;;;;5055579;28;20422;-63
2022/04/10 02:58:22;;;;;;;4.60;2.53;;;4.60;99.90;;;;;;5055248;28;20037;-62
2022/04/10 03:00:48;;;;;;;5.23;3.00;;;4.60;99.90;;;;;;5054910;28;20029;-62
2022/04/10 03:03:13;;;;;;;5.25;2.92;;;4.90;99.90;;;;;;5037399;28;20029;-63
2022/04/10 03:05:39;;;;;;;6.43;3.40;;;4.80;99.90;;;;;;5057590;28;20056;-62
2022/04/10 03:08:05;;;;;;;4.07;3.23;;;4.80;99.90;;;;;;5056257;28;20391;-61
2022/04/10 03:10:31;;;;;;;;;;;4.70;99.90;;;;;;5056715;28;20491;-61
2022/04/10 03:12:56;;;;;;;9.48;3.85;;;4.60;99.90;;;;;;5055847;28;20026;-62
2022/04/10 03:15:22;;;;;;;6.23;2.80;;;4.50;99.90;;;;;;5054850;28;20367;-63
2022/04/10 03:17:47;;;;;;;6.07;2.67;;;4.50;99.90;;;;;;5055116;28;20025;-63
2022/04/10 03:20:13;;;;;;;7.47;2.97;;;4.50;99.90;;;;;;5057535;28;20036;-63
2022/04/10 03:22:40;;;;;;;7.63;3.40;;;4.50;99.90;;;;;;5056513;28;20036;-63
2022/04/10 03:25:06;;;;;;;8.05;3.22;;;4.50;99.90;;;;;;5054442;28;20021;-60
2022/04/10 03:27:31;;;;;;;4.82;2.90;;;4.50;99.90;;;;;;5054240;28;20628;-61
2022/04/10 03:29:57;;;;;;;6.27;3.07;;;4.50;99.90;;;;;;5055274;28;20112;-62
2022/04/10 03:32:22;;;;;;;5.97;2.87;;;4.60;99.90;;;;;;5055799;28;20472;-63
2022/04/10 03:34:48;;;;;;;6.87;3.33;;;4.50;99.90;;;;;;5056065;28;20108;-62
2022/04/10 03:37:14;;;;;;;6.13;3.10;;;4.60;99.90;;;;;;5055742;28;20032;-62
2022/04/10 03:39:39;;;;;;;10.43;3.30;;;4.50;99.90;;;;;;5055148;28;20052;-62
2022/04/10 03:42:05;;;;;;;6.97;2.80;;;4.60;99.90;;;;;;5055489;28;20029;-62
2022/04/10 03:44:31;;;;;;;7.28;2.80;;;4.60;99.90;;;;;;5054489;28;20453;-62
2022/04/10 03:46:56;;;;;;;7.10;2.73;;;4.60;99.90;;;;;;5054465;28;20471;-62
2022/04/10 03:49:22;;;;;;;4.80;2.87;;;4.50;99.90;;;;;;5054002;28;20371;-61
2022/04/10 03:51:47;;;;;;;4.90;3.10;;;4.60;99.90;;;;;;5053967;28;20527;-61
2022/04/10 03:54:13;;;;;;;8.53;2.90;;;4.50;99.90;;;;;;5054245;28;20017;-59
2022/04/10 03:56:38;;;;;;;5.30;2.97;;;4.50;99.90;;;;;;5035921;28;20025;-63
2022/04/10 03:59:04;;;;;;;6.23;2.90;;;4.60;99.90;;;;;;5053564;28;20108;-60
2022/04/10 04:01:30;;;;;;;5.80;2.90;;;4.70;99.90;;;;;;5053973;28;20040;-61
2022/04/10 04:03:55;;;;;;;7.57;3.40;;;4.70;99.90;;;;;;5054067;28;20433;-63
2022/04/10 04:06:21;;;;;;;4.77;2.70;;;4.70;99.90;;;;;;5053880;28;20017;-62
2022/04/10 04:08:46;;;;;;;6.73;3.20;;;4.70;99.90;;;;;;5054116;28;20025;-62
2022/04/10 04:11:12;;;;;;;7.63;3.13;;;4.60;99.90;;;;;;5054956;28;20070;-62
2022/04/10 04:13:41;;;;;;;9.67;3.30;;;4.70;99.90;;;;;;5054102;28;20040;-63
2022/04/10 04:16:07;;;;;;;7.05;3.88;;;4.60;99.90;;;;;;5053815;28;20029;-63
2022/04/10 04:18:34;;;;;;;9.93;3.58;;;4.60;99.90;;;;;;5035887;28;20032;-62
2022/04/10 04:20:59;;;;;;;;;;;4.60;99.90;;;;;;5036561;28;20029;-63
2022/04/10 04:23:25;;;;;;;5.68;2.75;;;4.60;99.90;;;;;;5053747;28;20248;-62
2022/04/10 04:25:50;;;;;;;8.83;3.83;;;4.70;99.90;;;;;;5035701;28;20075;-62
2022/04/10 04:28:16;;;;;;;4.70;2.73;;;4.60;99.90;;;;;;5054016;28;20036;-62
2022/04/10 04:30:42;;;;;;;6.17;3.23;;;4.60;99.90;;;;;;5054024;28;20037;-61
2022/04/10 04:33:07;;;;;;;9.17;4.40;;;4.60;99.90;;;;;;5053341;28;20120;-61
2022/04/10 04:35:33;;;;;;;4.97;2.87;;;4.60;99.90;;;;;;5035257;28;20032;-62
2022/04/10 04:38:00;;;;;;;9.32;4.65;;;4.70;99.90;;;;;;5053062;28;20029;-62
2022/04/10 04:40:26;;;;;;;6.35;3.28;;;4.60;99.90;;;;;;5053836;28;20441;-63
2022/04/10 04:42:52;;;;;;;8.32;3.50;;;4.70;99.90;;;;;;5053916;28;20047;-62
2022/04/10 04:45:18;;;;;;;7.20;3.60;;;4.60;99.90;;;;;;5053972;28;20447;-62
2022/04/10 04:47:45;;;;;;;5.82;3.22;;;4.60;99.90;;;;;;5035030;28;20021;-61
2022/04/10 04:50:10;;;;;;;9.07;4.93;;;4.70;99.90;;;;;;5053699;28;20048;-63
2022/04/10 04:52:36;;;;;;;9.73;4.30;;;4.60;99.90;;;;;;5053074;28;20059;-64
2022/04/10 04:55:02;;;;;;;5.77;3.77;;;4.60;99.90;;;;;;5052936;28;20678;-62
2022/04/10 04:57:27;;;;;;;9.68;4.07;;;4.60;99.90;;;;;;5034672;28;20036;-62
2022/04/10 04:59:53;;;;;;;6.10;3.73;;;4.60;99.90;;;;;;5034641;28;20025;-61
2022/04/10 05:02:18;;;;;;;6.80;3.83;;;4.50;99.90;;;;;;5053270;28;20137;-62
2022/04/10 05:04:44;;;;;;;7.47;4.23;;;4.50;99.90;;;;;;5053973;28;20032;-61
2022/04/10 05:07:09;;;;;;;7.57;4.07;;;4.50;99.90;;;;;;5054280;28;20047;-61
2022/04/10 05:09:35;;;;;;;10.87;4.83;;;4.50;99.90;;;;;;5054386;28;20026;-62
2022/04/10 05:12:01;;;;;;;8.30;4.53;;;4.50;99.90;;;;;;5058691;28;20062;-61
2022/04/10 05:14:26;;;;;;;8.53;5.17;;;4.50;99.90;;;;;;5040636;28;20025;-62
2022/04/10 05:16:52;;;;;;;7.23;4.57;;;4.60;99.90;;;;;;5058703;28;20029;-62
2022/04/10 05:19:17;;;;;;;7.03;4.00;;;4.60;99.90;;;;;;5058396;28;20029;-62
2022/04/10 05:21:43;;;;;;;8.10;5.70;;;4.60;99.90;;;;;;5058536;28;20025;-61
2022/04/10 05:24:09;;;;;;;5.63;3.67;;;4.60;99.90;;;;;;5041282;28;20025;-61
2022/04/10 05:26:34;;;;;;;6.77;3.97;;;4.70;99.90;;;;;;5059581;28;20055;-61
2022/04/10 05:29:00;;;;;;;10.13;4.60;;;4.70;99.90;;;;;;5044382;28;20075;-62
2022/04/10 05:31:26;;;;;;;11.45;4.38;;;4.80;99.90;;;;;;5063758;28;20518;-61
2022/04/10 05:33:51;;;;;;;9.03;5.10;;;4.80;99.90;;;;;;5062861;28;20068;-61
2022/04/10 05:36:17;;;;;;;9.25;5.50;;;4.80;99.90;;;;;;5064071;28;20036;-63
2022/04/10 05:38:45;;;;;;;6.22;3.95;;;4.80;99.90;;;;;;5061671;28;20029;-62
2022/04/10 05:41:12;;;;;;;9.57;4.70;;;4.90;99.90;;;;;;5060513;28;20521;-62
2022/04/10 05:43:38;;;;;;;8.65;4.18;;;4.90;99.90;;;;;;5061067;28;20096;-62
2022/04/10 05:46:03;;;;;;;7.67;4.10;;;5.00;99.90;;;;;;5068312;28;20040;-62
2022/04/10 05:48:29;;;;;;;5.40;3.63;;;5.10;99.90;;;;;;5068919;28;20115;-63
2022/04/10 05:50:54;;;;;;;6.53;3.80;;;5.30;99.90;;;;;;5068590;28;20448;-60
2022/04/10 05:53:20;;;;;;;5.13;3.27;;;5.30;99.90;;;;;;5068081;28;20027;-64
2022/04/10 05:55:46;;;;;;;10.30;4.37;;;5.30;99.90;;;;;;5068945;28;20021;-63
2022/04/10 05:58:11;;;;;;;7.57;3.57;;;5.30;99.90;;;;;;5066164;28;20048;-62
2022/04/10 06:00:37;;;;;;;7.25;3.78;;;5.40;99.90;;;;;;5058425;28;20029;-62
2022/04/10 06:03:04;;;;;;;7.30;3.53;;;5.40;99.90;;;;;;5040191;28;20364;-62
2022/04/10 06:05:30;;;;;;;7.93;4.20;;;5.40;99.90;;;;;;5057947;28;20291;-62
2022/04/10 06:07:55;;;;;;;8.70;3.85;;;5.40;99.90;;;;;;5058103;28;20087;-63
2022/04/10 06:10:21;;;;;;;6.28;3.70;;;5.40;99.90;;;;;;5058150;28;20025;-62
2022/04/10 06:12:47;;;;;;;6.97;4.20;;;5.50;99.90;;;;;;5058197;28;20041;-62
2022/04/10 06:15:14;;;;;;;6.30;3.43;;;5.60;99.90;;;;;;5039714;28;20298;-63
2022/04/10 06:17:41;;;;;;;5.28;3.47;;;5.60;99.90;;;;;;5038650;28;20040;-63
2022/04/10 06:20:07;;;;;;;8.65;4.13;;;5.60;99.90;;;;;;5038495;28;20028;-63
2022/04/10 06:22:32;;;;;;;4.55;3.55;;;5.60;99.90;;;;;;5056227;28;20071;-63
2022/04/10 06:24:59;;;;;;;5.83;4.03;;;5.60;99.90;;;;;;5055861;28;20479;-61
2022/04/10 06:27:24;;;;;;;5.63;3.83;;;5.60;99.90;;;;;;5055742;28;20434;-62
2022/04/10 06:29:50;;;;;;;5.30;3.97;;;5.70;99.90;;;;;;5056106;28;20032;-64
2022/04/10 06:32:15;;;;;;;5.77;3.17;;;5.80;99.90;;;;;;5055539;28;20506;-64
2022/04/10 06:34:41;;;;;;;5.23;3.53;;;5.90;99.90;;;;;;5055567;28;20364;-61
2022/04/10 06:37:09;;;;;;;7.53;3.70;;;6.00;99.90;;;;;;5055261;28;20029;-60
2022/04/10 06:39:35;;;;;;;8.00;3.53;;;6.10;99.90;;;;;;5055587;28;20017;-63
2022/04/10 06:42:04;;;;;;;5.30;3.40;;;6.20;99.90;;;;;;5055364;28;20044;-65
2022/04/10 06:44:30;;;;;;;5.80;3.42;;;6.20;99.90;;;;;;5055111;28;20028;-63
2022/04/10 06:46:55;;;;;;;9.73;3.60;;;6.30;99.90;;;;;;5077428;23;20037;-64
2022/04/10 06:49:22;;;;;;;7.70;4.10;;;6.60;99.90;;;;;;5037094;28;20395;-64
2022/04/10 06:51:47;;;;;;;7.35;3.70;;;6.60;99.90;;;;;;5054993;28;20517;-63
2022/04/10 06:54:13;;;;;;;8.17;4.10;;;6.60;99.90;;;;;;5055551;28;20029;-64
2022/04/10 06:56:38;;;;;;;7.83;4.10;;;6.60;99.90;;;;;;5055230;28;20033;-61
2022/04/10 06:59:04;;;;;;;8.17;3.73;;;6.60;99.90;;;;;;5054832;28;20100;-64
2022/04/10 07:01:30;;;;;;;5.73;3.60;;;6.60;99.90;;;;;;5055803;28;20021;-64
2022/04/10 07:03:58;;;;;;;7.77;3.80;;;6.70;99.90;;;;;;5055396;28;20104;-64
2022/04/10 07:06:24;;;;;;;6.20;3.30;;;6.70;99.90;;;;;;5037062;28;20040;-62
2022/04/10 07:08:49;;;;;;;8.73;3.95;;;6.70;99.90;;;;;;5055071;28;20051;-64
2022/04/10 07:11:15;;;;;;;7.60;3.70;;;6.80;99.90;;;;;;5055317;28;20048;-63
2022/04/10 07:13:40;;;;;;;6.47;3.87;;;6.90;99.90;;;;;;5054470;28;20025;-64
2022/04/10 07:16:06;;;;;;;9.33;3.83;;;7.00;99.90;;;;;;5055046;28;20033;-61
2022/04/10 07:18:32;;;;;;;6.80;3.70;;;7.00;99.90;;;;;;5054361;28;20028;-62
2022/04/10 07:20:57;;;;;;;6.67;3.77;;;7.00;99.90;;;;;;5054878;28;20467;-65
2022/04/10 07:23:42;;;;;;;6.83;3.80;;;7.20;99.90;;;;;;5036435;28;20017;-62
2022/04/10 07:26:12;;;;;;;8.73;3.00;;;7.30;99.90;;;;;;5054761;28;20028;-61
2022/04/10 07:28:38;;;;;;;6.47;3.70;;;7.30;99.90;;;;;;5054328;28;20025;-65
2022/04/10 07:31:08;;;;;;;6.40;3.47;;;7.40;99.90;;;;;;5054205;28;20036;-66
2022/04/10 07:33:35;;;;;;;6.75;3.50;;;7.40;99.90;;;;;;5035369;28;20330;-64
2022/04/10 07:36:01;;;;;;;6.82;3.50;;;7.40;99.90;;;;;;5036355;28;20121;-65
2022/04/10 07:38:27;;;;;;;6.67;3.57;;;7.60;99.90;;;;;;5054458;28;20465;-63
2022/04/10 07:40:53;;;;;;;8.32;3.63;;;7.70;99.90;;;;;;5054144;28;20096;-65
2022/04/10 07:43:18;;;;;;;5.07;3.13;;;7.80;99.90;;;;;;5054079;28;20060;-66
2022/04/10 07:48:28;;;;;;;7.82;3.67;;;8.10;99.90;;;;;;5053844;28;20040;-66
2022/04/10 07:50:57;;;;;;;8.00;3.70;;;8.10;99.90;;;;;;5054240;28;20021;-66
2022/04/10 07:53:28;;;;;;;7.00;3.80;;;8.20;99.90;;;;;;5053734;28;20021;-67
2022/04/10 07:55:53;;;;;;;6.50;3.28;;;8.30;99.90;;;;;;5035472;28;20036;-65
2022/04/10 07:58:19;;;;;;;6.67;3.10;;;8.40;99.90;;;;;;5053687;28;20422;-66
2022/04/10 08:00:45;;;;;;;7.03;3.50;;;8.50;99.90;;;;;;5035493;28;20017;-65
2022/04/10 08:03:10;;;;;;;6.77;3.50;;;8.50;99.90;;;;;;5035792;28;20116;-67
2022/04/10 08:05:36;;;;;;;8.80;4.43;;;8.50;99.90;;;;;;5053835;28;20368;-67
2022/04/10 08:08:02;;;;;;;10.33;3.33;;;8.60;99.90;;;;;;5053377;28;20024;-65
2022/04/10 08:10:29;;;;;;;6.90;3.13;;;8.90;99.90;;;;;;5035626;28;20029;-64
2022/04/10 08:12:55;;;;;;;7.80;3.47;;;9.00;99.90;;;;;;5053698;28;20036;-66
2022/04/10 08:15:21;;;;;;;7.65;3.50;;;9.20;99.90;;;;;;5053111;28;20391;-66
2022/04/10 08:17:46;;;;;;;4.73;3.43;;;9.30;99.90;;;;;;5052778;28;20030;-66
2022/04/10 08:20:12;;;;;;;6.93;3.63;;;9.40;99.90;;;;;;5038599;28;20020;-66
2022/04/10 08:22:39;;;;;;;6.97;3.08;;;9.20;99.90;;;;;;5060283;28;20032;-66
2022/04/10 08:25:06;;;;;;;6.30;3.40;;;9.30;99.90;;;;;;5038184;28;20057;-65
2022/04/10 08:27:33;;;;;;;7.45;3.40;;;9.30;99.90;;;;;;5052651;28;20021;-65
2022/04/10 08:29:59;;;;;;;5.13;2.78;;;9.40;99.90;;;;;;5053908;28;20398;-66
2022/04/10 08:32:24;;;;;;;7.85;3.38;;;9.70;99.90;;;;;;5055489;28;20033;-66
2022/04/10 08:34:50;;;;;;;7.27;3.00;;;10.00;99.90;;;;;;5036527;28;20219;-65
2022/04/10 08:37:16;;;;;;;5.13;3.00;;;10.20;99.90;;;;;;5034707;28;20029;-61
2022/04/10 08:39:42;;;;;;;6.65;2.90;;;10.30;99.90;;;;;;5052766;28;20032;-62
2022/04/10 08:42:11;;;;;;;6.10;3.23;;;10.00;99.90;;;;;;5052756;28;20044;-63
2022/04/10 08:44:37;;;;;;;6.55;3.45;;;9.70;99.90;;;;;;5051556;28;20473;-63
2022/04/10 08:47:03;;;;;;;4.18;2.70;;;9.50;99.90;;;;;;5052030;28;20040;-63
2022/04/10 08:49:30;;;;;;;5.57;3.28;;;9.50;99.90;;;;;;5052629;28;20179;-63
2022/04/10 08:51:57;;;;;;;5.28;2.85;;;9.70;99.90;;;;;;5052642;28;20049;-65
2022/04/10 08:54:23;;;;;;;5.78;3.28;;;9.60;99.90;;;;;;5052697;28;20509;-65
2022/04/10 08:56:50;;;;;;;;;;;9.50;99.90;;;;;;5052697;28;20074;-63
2022/04/10 08:59:20;;;;;;;5.07;2.90;;;9.30;99.90;;;;;;5052737;28;19935;-64
2022/04/10 09:01:50;;;;;;;5.13;3.33;;;9.40;99.90;;;;;;5052316;28;20372;-65
2022/04/10 09:04:16;;;;;;;5.20;3.28;;;9.40;99.90;;;;;;5052441;28;20017;-60
2022/04/10 09:06:55;;;;;;;6.47;3.17;;;9.40;99.90;;;;;;5052265;28;20025;-67
2022/04/10 09:09:20;;;;;;;4.68;2.70;;;9.40;99.90;;;;;;5034302;28;20025;-64
2022/04/10 09:11:46;;;;;;;5.23;3.67;;;9.30;99.90;;;;;;5052427;28;20506;-64
2022/04/10 09:14:23;;;;;;;6.87;3.40;;;9.30;99.90;;;;;;5034106;28;20491;-66
2022/04/10 09:17:08;;;;;;;;;;;9.20;99.90;;;;;;5053306;28;20116;-66
2022/04/10 09:19:38;;;;;;;5.85;3.53;;;9.20;99.90;;;;;;5052642;28;19978;-63
2022/04/10 09:22:29;;;;;;;7.30;3.53;;;9.10;99.90;;;;;;5052293;28;20032;-66
2022/04/10 09:25:09;;;;;;;5.32;3.38;;;9.00;99.90;;;;;;5040025;28;20037;-62
2022/04/10 09:27:47;;;;;;;6.78;3.00;;;9.00;99.90;;;;;;5052161;28;20048;-64
2022/04/10 09:30:13;;;;;;;5.93;3.03;;;9.00;99.90;;;;;;5052882;28;20035;-65
2022/04/10 09:32:43;;;;;;;;;;;9.20;99.90;;;;;;5054231;28;20025;-65
2022/04/10 09:35:11;;;;;;;7.10;3.13;;;9.40;99.90;;;;;;5053161;28;20442;-64
2022/04/10 09:37:51;;;;;;;5.80;3.05;;;10.20;99.90;;;;;;5052388;28;20029;-66
2022/04/10 09:40:20;;;;;;;7.10;3.30;;;10.40;99.90;;;;;;5034544;28;20057;-69
2022/04/10 09:42:58;;;;;;;4.20;2.95;;;10.40;99.90;;;;;;5034194;28;20112;-62
2022/04/10 09:45:36;;;;;;;6.68;3.25;;;10.20;99.90;;;;;;5052388;28;20021;-63
2022/04/10 09:48:24;;;;;;;6.60;3.38;;;10.10;99.90;;;;;;5034062;28;20037;-63
2022/04/10 09:51:00;;;;;;;8.07;3.70;;;10.00;99.90;;;;;;5034894;28;20036;-65
2022/04/10 09:53:26;;;;;;;3.97;2.90;;;9.80;99.90;;;;;;5052919;28;20364;-65
2022/04/10 09:55:54;;;;;;;5.60;3.33;;;9.90;99.90;;;;;;5053761;28;20075;-63
2022/04/10 09:58:20;;;;;;;5.15;3.63;;;10.00;99.90;;;;;;5055796;28;20440;-64
2022/04/10 10:00:46;;;;;;;5.80;3.58;;;10.20;99.90;;;;;;5056037;28;20029;-64
2022/04/10 10:03:13;;;;;;;6.60;3.55;;;10.20;99.90;;;;;;5057318;28;20028;-65
2022/04/10 10:05:40;;;;;;;4.90;3.30;;;10.20;99.90;;;;;;5055773;28;20025;-63
2022/04/10 10:08:07;;;;;;;4.88;3.17;;;10.40;99.90;;;;;;5055538;28;20116;-64
2022/04/10 10:10:35;;;;;;;7.85;3.38;;;10.30;99.90;;;;;;5055770;28;20033;-63
2022/04/10 10:13:03;;;;;;;6.78;4.22;;;10.40;99.80;;;;;;5055508;28;20036;-65
2022/04/10 10:15:29;;;;;;;5.43;3.40;;;10.30;99.90;;;;;;5037499;28;20029;-61
2022/04/10 10:17:55;;;;;;;6.03;3.20;;;10.00;99.90;;;;;;5055684;28;20032;-64
2022/04/10 10:20:21;;;;;;;7.93;4.80;;;9.70;99.90;;;;;;5055343;28;20391;-66
2022/04/10 10:22:47;;;;;;;;;;;9.60;99.90;;;;;;5037784;28;20487;-62
2022/04/10 10:25:24;;;;;;;6.13;3.67;;;9.40;99.90;;;;;;5055717;28;19951;-62
2022/04/10 10:28:08;;;;;;;8.63;3.90;;;9.20;99.90;;;;;;5037257;28;20107;-64
2022/04/10 10:30:52;;;;;;;10.63;4.25;;;9.00;99.90;;;;;;5055151;28;20055;-63
2022/04/10 10:33:20;;;;;;;11.07;4.78;;;8.70;99.90;;;;;;5037135;28;20339;-65
2022/04/10 10:35:51;;;;;;;9.73;4.53;;;8.50;99.90;;;;;;5055152;28;20031;-60
2022/04/10 10:38:22;;;;;;;10.02;4.95;;;8.40;99.90;;;;;;5037024;28;20039;-65
2022/04/10 10:40:49;;;;;;;7.53;4.10;;;8.40;99.90;;;;;;5055063;28;20047;-63
2022/04/10 10:43:23;;;;;;;8.52;3.95;;;8.30;99.90;;;;;;5055105;28;20044;-63
2022/04/10 10:45:50;;;;;;;7.13;3.83;;;8.40;99.90;;;;;;5054825;28;20021;-63
2022/04/10 10:48:31;;;;;;;5.97;3.70;;;8.40;99.90;;;;;;5054633;28;20438;-64
2022/04/10 10:51:01;;;;;;;8.65;4.65;;;8.20;99.90;;;;;;5055191;28;20058;-64
2022/04/10 10:53:45;;;;;;;6.00;3.75;;;8.10;99.90;;;;;;5054906;28;20360;-65
2022/04/10 10:56:29;;;;;;;6.47;3.63;;;8.00;99.90;;;;;;5054677;28;20364;-65
2022/04/10 10:59:15;;;;;;;7.55;4.72;;;8.20;99.90;;;;;;5055071;28;20017;-66
2022/04/10 11:01:59;;;;;;;6.95;4.22;;;8.30;99.90;;;;;;5054417;28;20025;-66
2022/04/10 11:04:29;;;;;;;9.57;4.80;;;8.40;99.90;;;;;;5054623;28;20391;-65
2022/04/10 11:06:55;;;;;;;7.57;4.20;;;8.70;99.90;;;;;;5053850;28;20364;-66
2022/04/10 11:09:29;;;;;;;6.20;4.10;;;8.80;99.90;;;;;;5053963;28;20033;-65
2022/04/10 11:11:57;;;;;;;6.55;4.22;;;9.00;99.90;;;;;;5054769;28;20035;-66
2022/04/10 11:14:39;;;;;;;11.13;5.03;;;9.10;99.90;;;;;;5054534;28;20028;-60
2022/04/10 11:17:14;;;;;;;11.82;4.80;;;9.20;99.90;;;;;;5054277;28;20025;-61
2022/04/10 11:19:44;;;;;;;8.48;3.90;;;9.30;99.90;;;;;;5036494;28;20025;-64
2022/04/10 11:22:14;;;;;;;5.55;3.50;;;9.20;99.90;;;;;;5054693;28;20017;-66
2022/04/10 11:24:42;;;;;;;7.10;4.07;;;9.10;99.90;;;;;;5036129;28;20024;-66
2022/04/10 11:27:13;;;;;;;6.85;4.22;;;9.20;99.90;;;;;;5035904;28;20024;-65
2022/04/10 11:29:50;;;;;;;5.75;3.80;;;9.20;99.90;;;;;;5054166;28;20024;-66
2022/04/10 11:32:20;;;;;;;8.25;4.95;;;9.30;99.90;;;;;;5054776;28;20017;-65
2022/04/10 11:34:58;;;;;;;10.18;6.13;;;9.30;99.90;;;;;;5054723;28;20021;-64
2022/04/10 11:37:36;;;;;;;5.80;3.55;;;9.40;99.90;;;;;;5053976;28;20017;-64
2022/04/10 11:40:02;;;;;;;8.15;3.80;;;9.40;99.90;;;;;;5036287;28;20016;-66
2022/04/10 11:42:28;;;;;;;7.03;4.00;;;9.30;99.90;;;;;;5054162;28;20052;-66
2022/04/10 11:44:54;;;;;;;5.70;4.63;;;9.10;99.90;;;;;;5053745;28;20070;-66
2022/04/10 11:47:21;;;;;;;9.50;4.30;;;8.90;99.90;;;;;;5053856;28;20032;-66
2022/04/10 11:49:53;;;;;;;7.95;3.90;;;8.70;99.90;;;;;;5054167;28;20036;-66
2022/04/10 11:52:19;;;;;;;7.35;4.40;;;8.60;99.90;;;;;;5053807;28;20025;-67
2022/04/10 11:54:45;;;;;;;10.68;3.95;;;8.60;99.90;;;;;;5053895;28;20132;-66
2022/04/10 11:57:11;;;;;;;7.78;4.82;;;8.50;99.90;;;;;;5053963;28;20025;-67
2022/04/10 11:59:38;;;;;;;4.90;3.90;;;8.40;99.90;;;;;;5053922;28;20036;-66
2022/04/10 12:02:05;;;;;;;6.28;3.45;;;8.30;99.90;;;;;;5035566;28;20071;-67
2022/04/10 12:04:32;;;;;;;6.20;3.72;;;8.20;99.90;;;;;;5053445;28;20486;-67
2022/04/10 12:07:12;;;;;;;11.25;6.18;;;8.20;99.90;;;;;;5035602;28;20040;-67
2022/04/10 12:09:39;;;;;;;9.00;5.43;;;8.20;99.90;;;;;;5053745;28;20021;-67
2022/04/10 12:12:05;;;;;;;6.07;3.55;;;8.10;99.90;;;;;;5053683;28;20139;-62
2022/04/10 12:14:30;;;;;;;5.43;3.15;;;8.10;99.90;;;;;;5054026;28;20041;-64
2022/04/10 12:16:56;;;;;;;6.20;4.07;;;7.90;99.90;;;;;;5053572;28;20352;-63
2022/04/10 12:19:35;;;;;;;7.03;4.50;;;8.00;99.90;;;;;;5052856;28;20368;-63
2022/04/10 12:22:07;;;;;;;4.88;3.20;;;8.30;99.90;;;;;;5053144;28;20017;-63
2022/04/10 12:24:34;;;;;;;11.18;4.28;;;8.40;99.90;;;;;;5053494;28;20057;-63
2022/04/10 12:27:03;;;;;;;7.57;3.85;;;8.60;99.90;;;;;;5053347;28;20538;-63
2022/04/10 12:29:30;;;;;;;7.45;3.83;;;8.70;99.90;;;;;;5053257;28;20525;-62
2022/04/10 12:31:57;;;;;;;6.30;3.97;;;8.60;99.90;;;;;;5053287;28;20035;-64
2022/04/10 12:34:23;;;;;;;6.80;3.50;;;8.80;99.90;;;;;;5054645;28;20449;-66
2022/04/10 12:36:52;;;;;;;5.37;3.50;;;9.10;99.90;;;;;;5053257;28;20052;-62
2022/04/10 12:39:26;;;;;;;5.55;3.75;;;9.20;99.90;;;;;;5035122;28;20029;-65
2022/04/10 12:41:59;;;;;;;4.85;3.33;;;9.20;99.90;;;;;;5053142;28;20017;-66
2022/04/10 12:44:25;;;;;;;7.40;4.07;;;9.60;99.90;;;;;;5053465;28;20013;-66
2022/04/10 12:49:27;;;;;;;;;;;9.70;99.90;;;;;;5051788;28;20052;-66
2022/04/10 12:52:05;;;;;;;4.50;2.35;;;9.60;99.90;;;;;;5053768;28;19906;-66
2022/04/10 12:54:44;;;;;;;4.25;2.70;;;9.60;99.90;;;;;;5053796;28;20024;-66
2022/04/10 12:57:24;;;;;;;6.15;4.10;;;9.70;99.90;;;;;;5053477;28;20099;-67
2022/04/10 12:59:49;;;;;;;7.30;3.75;;;9.70;99.90;;;;;;5053616;28;20032;-67
2022/04/10 13:02:25;;;;;;;8.30;4.65;;;9.90;99.90;;;;;;5054056;28;20097;-65
2022/04/10 13:04:58;;;;;;;6.13;4.25;;;10.10;99.90;;;;;;5052767;28;20384;-64